Time;durP1;ratioP1;P1;durP2;ratioP2;P2;SDS_P1;SDS_P2;PMS_P1;PMS_P2;Temp;Humidity;BMP_temperature;BMP_pressure;BME280_temperature;BME280_humidity;BME280_pressure;Samples;Min_cycle;Max_cycle;Signal;HPM_P1;HPM_P2
2021/05/31 00:02:18;;;;;;;0.90;0.55;;;14.50;64.50;;;;;;4958892;28;20129;-84
2021/05/31 00:04:44;;;;;;;0.95;0.80;;;14.50;64.60;;;;;;4941555;28;20134;-87
2021/05/31 00:07:12;;;;;;;0.50;0.50;;;14.40;64.70;;;;;;4941004;28;20437;-85
2021/05/31 00:09:40;;;;;;;0.70;0.70;;;14.30;64.70;;;;;;4924808;28;20114;-85
2021/05/31 00:12:09;;;;;;;1.10;0.70;;;14.50;65.00;;;;;;4940398;28;20054;-82
2021/05/31 00:14:36;;;;;;;1.42;0.73;;;14.40;65.00;;;;;;4956141;28;20047;-85
2021/05/31 00:17:02;;;;;;;1.42;0.80;;;14.40;65.10;;;;;;4925884;28;20108;-84
2021/05/31 00:19:28;;;;;;;0.45;0.45;;;14.30;65.20;;;;;;4941842;28;20055;-86
2021/05/31 00:21:54;;;;;;;0.80;0.70;;;14.40;65.30;;;;;;4941757;28;20540;-86
2021/05/31 00:24:20;;;;;;;0.52;0.52;;;14.30;65.40;;;;;;4941971;28;20121;-84
2021/05/31 00:26:47;;;;;;;2.08;0.70;;;14.30;65.50;;;;;;4941025;28;20072;-84
2021/05/31 00:29:13;;;;;;;0.60;0.60;;;14.30;65.60;;;;;;4958175;28;20047;-84
2021/05/31 00:31:39;;;;;;;0.70;0.70;;;14.30;65.70;;;;;;4925712;28;20046;-86
2021/05/31 00:34:05;;;;;;;0.70;0.70;;;14.20;65.80;;;;;;4959539;28;20050;-84
2021/05/31 00:36:31;;;;;;;0.70;0.70;;;14.20;65.90;;;;;;4996938;28;20049;-84
2021/05/31 00:38:57;;;;;;;0.95;0.70;;;14.20;65.90;;;;;;4997480;28;20064;-87
2021/05/31 00:41:23;;;;;;;0.70;0.70;;;14.30;66.20;;;;;;4997354;28;20042;-85
2021/05/31 00:43:50;;;;;;;0.82;0.70;;;14.20;66.20;;;;;;4997111;28;20125;-84
2021/05/31 00:46:17;;;;;;;0.85;0.70;;;14.10;66.30;;;;;;4980887;28;20444;-82
2021/05/31 00:48:43;;;;;;;1.15;0.85;;;14.10;66.40;;;;;;4997131;28;20062;-84
2021/05/31 00:51:11;;;;;;;1.10;0.70;;;14.10;66.60;;;;;;4996713;28;20047;-84
2021/05/31 00:53:38;;;;;;;0.60;0.60;;;14.00;66.70;;;;;;4996458;28;20512;-84
2021/05/31 00:56:04;;;;;;;1.35;0.70;;;14.00;66.80;;;;;;4980004;28;20138;-84
2021/05/31 00:58:31;;;;;;;0.60;0.60;;;13.90;67.00;;;;;;4980514;28;20041;-85
2021/05/31 01:00:59;;;;;;;1.27;0.68;;;13.90;67.10;;;;;;4979163;28;20039;-85
2021/05/31 01:03:26;;;;;;;0.70;0.70;;;13.80;67.20;;;;;;4996697;28;20049;-86
2021/05/31 01:05:54;;;;;;;1.27;0.93;;;13.80;67.30;;;;;;4979969;28;20034;-84
2021/05/31 01:08:26;;;;;;;0.98;0.77;;;13.80;67.40;;;;;;4996914;28;20042;-86
2021/05/31 01:11:07;;;;;;;1.23;0.60;;;13.80;67.50;;;;;;4979917;28;20042;-85
2021/05/31 01:13:55;;;;;;;0.85;0.70;;;13.70;67.50;;;;;;4997145;28;20065;-86
2021/05/31 01:16:34;;;;;;;0.63;0.63;;;13.80;67.60;;;;;;4998307;28;20066;-87
2021/05/31 01:19:04;;;;;;;0.70;0.70;;;13.80;67.60;;;;;;4996348;28;20065;-85
2021/05/31 01:21:45;;;;;;;2.27;0.77;;;13.70;67.70;;;;;;4996514;28;20045;-85
2021/05/31 01:24:22;;;;;;;0.50;0.50;;;13.70;67.80;;;;;;4996732;28;20041;-85
2021/05/31 01:26:59;;;;;;;0.90;0.80;;;13.60;67.80;;;;;;4998120;28;20046;-85
2021/05/31 01:29:26;;;;;;;2.22;0.80;;;13.50;67.90;;;;;;4980408;28;20071;-86
2021/05/31 01:32:02;;;;;;;0.82;0.82;;;13.60;68.00;;;;;;4979977;28;20037;-85
2021/05/31 01:34:32;;;;;;;0.55;0.50;;;13.60;68.20;;;;;;4996445;28;20112;-87
2021/05/31 01:37:04;;;;;;;0.90;0.60;;;13.60;68.30;;;;;;4996079;28;20034;-85
2021/05/31 01:39:34;;;;;;;1.25;0.77;;;13.50;68.30;;;;;;4980941;28;20117;-85
2021/05/31 01:42:00;;;;;;;0.97;0.70;;;13.60;68.50;;;;;;4994329;28;20034;-87
2021/05/31 01:44:26;;;;;;;1.38;0.80;;;13.50;68.50;;;;;;4977488;28;20351;-87
2021/05/31 01:46:53;;;;;;;0.65;0.63;;;13.50;68.50;;;;;;4995864;28;20443;-87
2021/05/31 01:49:20;;;;;;;1.02;0.82;;;13.50;68.60;;;;;;4978772;28;20046;-87
2021/05/31 01:51:46;;;;;;;0.82;0.80;;;13.50;68.80;;;;;;4996205;28;20140;-86
2021/05/31 01:54:15;;;;;;;1.48;0.93;;;13.40;68.80;;;;;;5011933;28;20046;-86
2021/05/31 01:56:44;;;;;;;1.35;0.90;;;13.50;69.00;;;;;;4995883;28;20061;-85
2021/05/31 01:59:10;;;;;;;0.85;0.80;;;13.50;69.10;;;;;;4996173;28;20045;-86
2021/05/31 02:01:36;;;;;;;0.60;0.52;;;13.40;69.10;;;;;;5012319;28;20041;-87
2021/05/31 02:04:02;;;;;;;1.52;0.90;;;13.50;69.20;;;;;;4994118;28;20150;-85
2021/05/31 02:06:27;;;;;;;1.00;0.90;;;13.30;69.20;;;;;;4995001;28;20046;-83
2021/05/31 02:08:53;;;;;;;1.27;1.00;;;13.40;69.40;;;;;;5013198;28;20099;-85
2021/05/31 02:11:31;;;;;;;1.20;0.98;;;13.40;69.40;;;;;;4995850;28;20053;-85
2021/05/31 02:14:02;;;;;;;1.23;0.90;;;13.30;69.50;;;;;;4997600;28;20476;-87
2021/05/31 02:16:33;;;;;;;;;;;13.30;69.60;;;;;;4996683;28;20037;-85
2021/05/31 02:19:00;;;;;;;0.82;0.70;;;13.30;69.60;;;;;;4995752;28;19917;-86
2021/05/31 02:21:27;;;;;;;0.73;0.70;;;13.30;69.50;;;;;;4979881;28;20133;-84
2021/05/31 02:23:54;;;;;;;0.88;0.80;;;13.20;69.50;;;;;;4995545;28;20045;-86
2021/05/31 02:26:20;;;;;;;0.80;0.75;;;13.30;69.70;;;;;;4995518;28;20048;-85
2021/05/31 02:28:47;;;;;;;0.88;0.68;;;13.20;69.80;;;;;;4995441;28;20088;-85
2021/05/31 02:31:17;;;;;;;1.08;0.70;;;13.40;70.00;;;;;;4995270;28;20132;-85
2021/05/31 02:33:46;;;;;;;1.23;0.90;;;13.20;70.00;;;;;;4979008;28;20050;-85
2021/05/31 02:36:12;;;;;;;1.42;1.00;;;13.20;70.20;;;;;;4978047;28;20501;-84
2021/05/31 02:38:38;;;;;;;0.93;0.82;;;13.20;70.30;;;;;;4978927;28;20073;-85
2021/05/31 02:41:05;;;;;;;1.00;0.90;;;13.10;70.40;;;;;;4975140;28;20084;-85
2021/05/31 02:43:30;;;;;;;1.52;0.98;;;13.10;70.50;;;;;;4995080;28;20408;-86
2021/05/31 02:45:56;;;;;;;0.90;0.70;;;13.00;70.60;;;;;;4994211;28;20038;-86
2021/05/31 02:48:23;;;;;;;0.80;0.63;;;13.00;70.70;;;;;;4995467;28;20053;-86
2021/05/31 02:50:49;;;;;;;0.63;0.63;;;13.00;70.80;;;;;;4976761;28;20102;-86
2021/05/31 02:53:15;;;;;;;1.35;0.80;;;12.90;70.90;;;;;;4994477;28;20041;-85
2021/05/31 02:55:41;;;;;;;0.88;0.80;;;13.10;71.10;;;;;;4995480;28;20442;-85
2021/05/31 02:58:07;;;;;;;0.73;0.70;;;12.90;71.00;;;;;;4978884;28;20046;-85
2021/05/31 03:00:32;;;;;;;1.13;0.93;;;13.00;71.10;;;;;;5012257;28;20120;-85
2021/05/31 03:02:58;;;;;;;1.15;0.80;;;12.90;71.10;;;;;;4994774;28;20117;-86
2021/05/31 03:05:29;;;;;;;1.23;0.90;;;12.90;71.20;;;;;;4994770;28;20048;-85
2021/05/31 03:07:55;;;;;;;1.02;0.85;;;12.90;71.30;;;;;;4994816;28;20042;-85
2021/05/31 03:10:21;;;;;;;1.33;0.80;;;12.90;71.30;;;;;;5012325;28;20045;-85
2021/05/31 03:12:47;;;;;;;1.23;1.00;;;12.80;71.30;;;;;;5010686;28;20065;-85
2021/05/31 03:15:16;;;;;;;1.42;0.90;;;12.90;71.50;;;;;;4977374;28;20042;-85
2021/05/31 03:17:43;;;;;;;0.80;0.80;;;12.90;72.20;;;;;;4997509;28;20041;-85
2021/05/31 03:20:10;;;;;;;1.63;1.00;;;12.80;71.50;;;;;;4980168;28;20383;-84
2021/05/31 03:22:36;;;;;;;1.42;0.90;;;12.80;71.60;;;;;;4997941;28;20515;-86
2021/05/31 03:25:03;;;;;;;1.25;1.00;;;12.70;71.60;;;;;;4981133;28;20046;-85
2021/05/31 03:27:28;;;;;;;1.73;0.90;;;12.90;71.70;;;;;;4998054;28;20456;-85
2021/05/31 03:29:54;;;;;;;1.67;1.08;;;12.70;71.60;;;;;;4998226;28;20069;-85
2021/05/31 03:32:20;;;;;;;1.27;0.93;;;12.80;71.70;;;;;;4997859;28;20046;-85
2021/05/31 03:34:45;;;;;;;1.45;1.00;;;12.70;71.80;;;;;;4997981;28;20049;-85
2021/05/31 03:37:11;;;;;;;1.20;0.90;;;12.70;71.80;;;;;;4979903;28;20049;-85
2021/05/31 03:39:37;;;;;;;1.15;0.77;;;12.70;71.90;;;;;;4981889;28;20107;-85
2021/05/31 03:42:03;;;;;;;1.13;0.82;;;12.70;71.90;;;;;;4980457;28;20034;-86
2021/05/31 03:44:29;;;;;;;1.13;0.88;;;12.70;72.00;;;;;;4996380;28;20116;-85
2021/05/31 03:46:55;;;;;;;1.67;1.00;;;12.70;72.00;;;;;;4997557;28;20049;-85
2021/05/31 03:49:20;;;;;;;1.15;0.75;;;12.70;72.00;;;;;;4981277;28;20049;-85
2021/05/31 03:51:46;;;;;;;1.52;1.05;;;12.70;72.00;;;;;;4996335;28;20500;-86
2021/05/31 03:54:13;;;;;;;1.23;0.82;;;12.70;72.10;;;;;;4997335;28;20125;-86
2021/05/31 03:56:39;;;;;;;1.85;0.95;;;12.80;72.20;;;;;;4997404;28;20514;-86
2021/05/31 03:59:06;;;;;;;1.33;0.85;;;12.60;72.10;;;;;;4997441;28;20052;-86
2021/05/31 04:01:32;;;;;;;1.08;0.85;;;12.70;72.20;;;;;;4996133;28;20556;-85
2021/05/31 04:03:58;;;;;;;1.65;1.10;;;12.70;72.20;;;;;;4979659;28;20038;-85
2021/05/31 04:06:35;;;;;;;0.95;0.90;;;12.70;72.20;;;;;;4981253;28;20042;-86
2021/05/31 04:11:41;;;;;;;1.77;0.90;;;12.60;72.20;;;;;;4999588;28;20050;-85
2021/05/31 04:14:13;;;;;;;1.60;1.00;;;12.70;72.20;;;;;;4981000;28;20046;-83
2021/05/31 04:16:41;;;;;;;2.00;1.00;;;12.70;72.30;;;;;;4980614;28;20443;-85
2021/05/31 04:19:08;;;;;;;1.27;1.02;;;12.70;72.30;;;;;;4997504;28;20038;-85
2021/05/31 04:21:35;;;;;;;1.58;1.00;;;12.60;72.20;;;;;;4996000;28;20484;-84
2021/05/31 04:24:02;;;;;;;0.80;0.65;;;12.70;72.30;;;;;;4997384;28;20057;-84
2021/05/31 04:26:29;;;;;;;1.30;1.00;;;12.60;72.30;;;;;;4980810;28;20050;-85
2021/05/31 04:28:54;;;;;;;0.95;0.70;;;12.70;72.30;;;;;;4996195;28;20411;-85
2021/05/31 04:31:20;;;;;;;1.40;0.73;;;12.70;72.30;;;;;;5013489;28;20048;-83
2021/05/31 04:33:46;;;;;;;1.85;1.00;;;12.60;72.30;;;;;;5014635;28;20420;-84
2021/05/31 04:36:12;;;;;;;1.67;1.13;;;12.70;72.30;;;;;;4997054;28;20042;-85
2021/05/31 04:38:38;;;;;;;1.30;0.98;;;12.70;72.30;;;;;;4980107;28;20061;-83
2021/05/31 04:41:04;;;;;;;1.10;0.95;;;12.80;72.40;;;;;;4981317;28;20046;-83
2021/05/31 04:43:30;;;;;;;1.85;1.10;;;12.80;72.40;;;;;;4997040;28;20030;-84
2021/05/31 04:45:56;;;;;;;1.20;0.98;;;12.80;72.40;;;;;;4997715;28;20046;-86
2021/05/31 04:48:22;;;;;;;1.85;1.20;;;12.80;72.30;;;;;;4980724;28;20088;-83
2021/05/31 04:50:48;;;;;;;1.73;1.08;;;12.80;72.30;;;;;;5014920;28;20092;-83
2021/05/31 04:53:14;;;;;;;1.60;1.05;;;12.90;72.40;;;;;;4997308;28;20137;-84
2021/05/31 04:55:40;;;;;;;1.50;0.95;;;12.80;72.30;;;;;;4996660;28;20074;-84
2021/05/31 04:58:06;;;;;;;1.20;0.90;;;12.90;72.30;;;;;;4980565;28;20084;-84
2021/05/31 05:00:32;;;;;;;1.50;1.00;;;12.90;72.20;;;;;;5014840;28;20038;-85
2021/05/31 05:02:58;;;;;;;2.33;1.20;;;13.00;72.20;;;;;;4996789;28;20522;-84
2021/05/31 05:05:25;;;;;;;1.00;0.90;;;13.00;72.10;;;;;;5014329;28;20038;-84
2021/05/31 05:07:51;;;;;;;1.50;1.02;;;13.10;72.00;;;;;;4980408;28;20042;-85
2021/05/31 05:10:19;;;;;;;0.90;0.80;;;13.20;71.90;;;;;;4996310;28;20042;-84
2021/05/31 05:12:47;;;;;;;1.10;0.90;;;13.20;71.90;;;;;;4996857;28;20127;-84
2021/05/31 05:15:15;;;;;;;1.73;1.20;;;13.30;71.90;;;;;;4996583;28;20046;-83
2021/05/31 05:17:42;;;;;;;1.10;0.77;;;13.50;71.80;;;;;;5013872;28;20046;-84
2021/05/31 05:20:08;;;;;;;1.17;0.85;;;13.50;71.60;;;;;;4994861;28;20492;-85
2021/05/31 05:22:34;;;;;;;1.20;0.90;;;13.60;71.40;;;;;;4977442;28;20047;-83
2021/05/31 05:24:59;;;;;;;1.38;1.05;;;13.70;71.30;;;;;;4979268;28;20169;-84
2021/05/31 05:27:26;;;;;;;1.60;1.10;;;13.70;71.20;;;;;;4994864;28;20057;-85
2021/05/31 05:29:52;;;;;;;1.42;1.05;;;13.90;71.10;;;;;;4996351;28;20488;-84
2021/05/31 05:32:17;;;;;;;0.70;0.70;;;14.00;71.00;;;;;;4996839;28;20060;-85
2021/05/31 05:34:43;;;;;;;1.05;0.88;;;14.00;70.90;;;;;;4995949;28;20084;-86
2021/05/31 05:37:14;;;;;;;1.30;0.90;;;14.10;70.80;;;;;;5014100;28;20046;-85
2021/05/31 05:42:48;;;;;;;1.25;0.88;;;14.30;70.70;;;;;;5021634;28;20041;-82
2021/05/31 05:45:26;;;;;;;1.38;1.00;;;14.30;70.60;;;;;;5019338;28;20105;-86
2021/05/31 05:47:52;;;;;;;1.00;0.80;;;14.40;70.50;;;;;;5014427;28;20141;-84
2021/05/31 05:50:20;;;;;;;1.23;0.90;;;14.60;70.60;;;;;;4996084;28;20493;-85
2021/05/31 05:52:48;;;;;;;1.80;1.08;;;14.50;70.40;;;;;;4996326;28;20038;-85
2021/05/31 05:55:14;;;;;;;1.38;1.10;;;14.60;70.50;;;;;;4994816;28;20046;-84
2021/05/31 05:57:41;;;;;;;1.50;0.93;;;14.70;70.50;;;;;;4994095;28;20042;-84
2021/05/31 06:00:20;;;;;;;1.77;1.30;;;14.70;70.50;;;;;;4995869;28;20121;-84
2021/05/31 06:02:46;;;;;;;1.30;1.00;;;14.80;70.40;;;;;;4979362;28;20037;-86
2021/05/31 06:05:13;;;;;;;1.70;1.17;;;14.80;70.40;;;;;;4994025;28;20065;-85
2021/05/31 06:07:39;;;;;;;1.48;1.10;;;14.90;70.40;;;;;;4995480;28;20045;-84
2021/05/31 06:10:06;;;;;;;1.45;1.00;;;15.00;70.40;;;;;;4979591;28;20474;-85
2021/05/31 06:12:32;;;;;;;2.35;1.30;;;14.90;70.30;;;;;;5011214;28;20045;-85
2021/05/31 06:14:57;;;;;;;1.23;1.02;;;15.00;70.30;;;;;;4994362;28;20053;-80
2021/05/31 06:17:23;;;;;;;1.65;1.17;;;15.10;70.40;;;;;;4995607;28;20041;-82
2021/05/31 06:19:49;;;;;;;1.42;0.80;;;15.20;70.30;;;;;;4995354;28;20380;-84
2021/05/31 06:22:14;;;;;;;2.47;0.90;;;15.20;70.10;;;;;;4979184;28;20052;-84
2021/05/31 06:24:42;;;;;;;0.93;0.90;;;15.30;70.00;;;;;;4995422;28;20065;-84
2021/05/31 06:27:09;;;;;;;3.05;1.13;;;15.30;69.90;;;;;;4979747;28;20084;-84
2021/05/31 06:29:35;;;;;;;1.50;1.00;;;15.50;69.80;;;;;;4995325;28;20052;-81
2021/05/31 06:32:00;;;;;;;1.73;1.13;;;15.60;69.70;;;;;;4993741;28;20121;-83
2021/05/31 06:34:26;;;;;;;2.10;1.30;;;15.70;69.40;;;;;;5010508;28;20152;-84
2021/05/31 06:36:55;;;;;;;1.30;0.98;;;15.80;69.30;;;;;;4995197;28;20117;-82
2021/05/31 06:39:22;;;;;;;1.02;0.88;;;15.90;69.20;;;;;;5012504;28;20088;-83
2021/05/31 06:41:49;;;;;;;2.03;1.38;;;16.00;69.00;;;;;;4995308;28;20038;-84
2021/05/31 06:44:49;;;;;;;1.10;0.90;;;16.20;68.90;;;;;;4995346;28;20488;-86
2021/05/31 06:47:50;;;;;;;1.88;1.10;;;16.30;68.80;;;;;;4980233;28;20054;-88
2021/05/31 06:50:30;;;;;;;1.73;0.95;;;16.40;68.60;;;;;;5015244;28;20046;-83
2021/05/31 06:52:59;;;;;;;1.10;0.90;;;16.60;68.50;;;;;;5013175;28;20512;-83
2021/05/31 06:55:27;;;;;;;1.00;0.90;;;16.70;68.20;;;;;;5002667;28;20069;-83
2021/05/31 07:02:24;;;;;;;1.40;1.00;;;17.20;67.90;;;;;;4980708;28;20382;-88
2021/05/31 07:04:58;;;;;;;0.90;0.90;;;17.30;67.50;;;;;;4944282;28;20030;-84
2021/05/31 07:07:25;;;;;;;1.63;1.00;;;17.50;67.50;;;;;;4958229;28;20051;-84
2021/05/31 07:09:50;;;;;;;0.90;0.80;;;17.80;67.30;;;;;;4956377;28;20414;-83
2021/05/31 07:12:18;;;;;;;0.80;0.80;;;18.00;67.20;;;;;;4974266;28;20111;-83
2021/05/31 07:14:47;;;;;;;1.10;0.90;;;18.20;67.00;;;;;;4958312;28;20138;-80
2021/05/31 07:17:14;;;;;;;1.25;1.00;;;18.40;66.80;;;;;;4973577;28;20135;-79
2021/05/31 07:19:43;;;;;;;1.65;1.05;;;18.60;66.60;;;;;;4956885;28;20046;-78
2021/05/31 07:22:08;;;;;;;1.73;1.10;;;18.70;66.40;;;;;;4941724;28;20042;-79
2021/05/31 07:24:34;;;;;;;2.28;1.25;;;18.90;66.50;;;;;;4955747;28;20133;-78
2021/05/31 07:27:00;;;;;;;2.13;1.23;;;19.10;66.30;;;;;;4970778;28;20485;-77
2021/05/31 07:29:26;;;;;;;2.00;1.40;;;19.20;66.10;;;;;;4972322;28;20073;-78
2021/05/31 07:31:53;;;;;;;1.33;1.23;;;19.40;66.00;;;;;;4958346;28;20564;-79
2021/05/31 07:34:19;;;;;;;1.40;1.17;;;19.50;65.90;;;;;;4959126;28;20513;-77
2021/05/31 07:36:44;;;;;;;2.08;1.48;;;19.70;66.10;;;;;;4954528;28;20046;-77
2021/05/31 07:43:01;;;;;;;2.63;1.70;;;19.90;65.80;;;;;;5010526;28;20149;-77
2021/05/31 07:45:27;;;;;;;1.77;1.20;;;20.10;65.80;;;;;;4997572;28;20042;-78
2021/05/31 07:47:53;;;;;;;1.83;1.35;;;20.20;65.70;;;;;;4996228;28;20045;-78
2021/05/31 07:50:19;;;;;;;1.20;1.10;;;20.40;65.60;;;;;;4993241;28;20076;-78
2021/05/31 07:52:46;;;;;;;1.40;1.02;;;20.50;65.50;;;;;;5009820;28;20042;-78
2021/05/31 07:55:14;;;;;;;1.25;1.15;;;20.60;65.40;;;;;;5009368;28;20528;-78
2021/05/31 07:57:41;;;;;;;2.70;1.30;;;20.80;65.30;;;;;;4992953;28;20116;-77
2021/05/31 08:00:11;;;;;;;1.92;1.27;;;21.10;65.40;;;;;;4992887;28;20496;-76
2021/05/31 08:02:38;;;;;;;1.55;1.20;;;21.30;65.20;;;;;;5009493;28;20049;-77
2021/05/31 08:05:04;;;;;;;1.90;1.40;;;21.40;65.00;;;;;;4996654;28;20070;-77
2021/05/31 08:07:32;;;;;;;1.98;1.30;;;21.70;65.10;;;;;;4996878;28;20065;-79
2021/05/31 08:09:58;;;;;;;1.40;1.10;;;21.80;64.80;;;;;;4996742;28;20060;-78
2021/05/31 08:12:24;;;;;;;1.52;1.10;;;22.00;64.60;;;;;;4996292;28;20495;-78
2021/05/31 08:14:50;;;;;;;2.00;1.17;;;22.20;64.60;;;;;;4995968;28;20054;-80
2021/05/31 08:17:38;;;;;;;1.83;1.40;;;22.20;64.50;;;;;;5013075;28;20053;-81
2021/05/31 08:20:37;;;;;;;2.10;1.30;;;22.40;64.30;;;;;;4995459;28;20127;-81
2021/05/31 08:23:06;;;;;;;2.35;1.25;;;22.40;64.30;;;;;;4989632;28;20109;-82
2021/05/31 08:25:32;;;;;;;1.30;1.10;;;22.60;64.40;;;;;;4993134;28;20039;-79
2021/05/31 08:27:58;;;;;;;1.58;1.17;;;22.70;64.30;;;;;;4978656;28;20076;-82
2021/05/31 08:30:24;;;;;;;1.88;1.17;;;22.90;64.20;;;;;;4961550;28;20047;-82
2021/05/31 08:32:57;;;;;;;1.90;1.20;;;23.00;63.80;;;;;;4978306;28;20613;-82
2021/05/31 08:35:24;;;;;;;1.30;1.00;;;23.30;63.60;;;;;;4963651;28;20043;-83
2021/05/31 08:37:50;;;;;;;1.25;1.10;;;23.30;63.50;;;;;;4958103;28;20397;-83
2021/05/31 08:40:16;;;;;;;1.20;1.10;;;23.30;63.60;;;;;;4956510;28;20402;-81
2021/05/31 08:42:43;;;;;;;1.38;0.80;;;23.40;63.70;;;;;;4953894;28;20043;-79
2021/05/31 08:45:43;;;;;;;0.80;0.80;;;23.40;63.50;;;;;;4953878;29;20047;-80
2021/05/31 08:48:14;;;;;;;0.98;0.98;;;23.60;63.40;;;;;;4941986;29;20061;-78
2021/05/31 08:50:40;;;;;;;1.33;1.10;;;23.80;63.20;;;;;;4926823;29;20137;-76
2021/05/31 08:53:07;;;;;;;1.48;1.10;;;23.80;63.60;;;;;;4928614;29;20550;-75
2021/05/31 08:55:35;;;;;;;1.45;1.02;;;24.10;62.70;;;;;;4934579;29;20055;-77
2021/05/31 08:58:02;;;;;;;1.38;1.00;;;24.30;62.50;;;;;;4918607;29;20047;-78
2021/05/31 09:00:31;;;;;;;1.10;0.90;;;24.40;62.40;;;;;;4918337;29;20401;-77
2021/05/31 09:03:02;;;;;;;0.88;0.88;;;24.60;62.20;;;;;;4934137;29;20122;-77
2021/05/31 09:05:38;;;;;;;1.23;0.98;;;24.50;62.00;;;;;;4934568;29;20047;-77
2021/05/31 09:08:07;;;;;;;0.60;0.60;;;24.60;62.00;;;;;;4934567;29;20046;-78
2021/05/31 09:10:37;;;;;;;0.80;0.80;;;24.60;61.90;;;;;;4934387;29;20540;-76
2021/05/31 09:13:03;;;;;;;1.20;0.93;;;24.70;61.90;;;;;;4934651;29;20052;-76
2021/05/31 09:15:29;;;;;;;1.00;0.90;;;24.70;61.90;;;;;;4948905;28;20508;-75
2021/05/31 09:17:55;;;;;;;0.93;0.85;;;24.90;61.80;;;;;;4982028;28;20088;-76
2021/05/31 09:20:23;;;;;;;0.95;0.95;;;25.10;61.70;;;;;;4980254;28;20042;-76
2021/05/31 09:22:52;;;;;;;1.38;1.00;;;25.30;61.40;;;;;;4996089;28;20054;-78
2021/05/31 09:25:34;;;;;;;0.88;0.88;;;25.30;61.20;;;;;;4996772;28;20562;-78
2021/05/31 09:28:05;;;;;;;0.85;0.85;;;25.40;61.00;;;;;;4996096;28;20069;-76
2021/05/31 09:30:34;;;;;;;0.90;0.90;;;25.50;60.80;;;;;;4978433;28;20105;-76
2021/05/31 09:33:00;;;;;;;0.75;0.75;;;25.60;60.70;;;;;;4996275;28;20034;-78
2021/05/31 09:35:25;;;;;;;0.90;0.90;;;25.60;60.60;;;;;;4998522;28;20047;-80
2021/05/31 09:38:02;;;;;;;0.85;0.85;;;25.60;60.50;;;;;;5004524;28;20400;-83
2021/05/31 09:40:28;;;;;;;1.02;0.90;;;25.50;60.40;;;;;;5022313;28;20038;-78
2021/05/31 09:42:57;;;;;;;1.15;0.80;;;25.60;60.50;;;;;;4998683;28;20045;-77
2021/05/31 09:45:24;;;;;;;0.85;0.85;;;25.60;60.40;;;;;;5013950;28;20045;-76
2021/05/31 09:47:50;;;;;;;0.80;0.80;;;25.60;60.40;;;;;;4995559;28;20038;-78
2021/05/31 09:50:25;;;;;;;0.80;0.80;;;25.70;60.30;;;;;;4995686;28;20048;-75
2021/05/31 09:53:05;;;;;;;0.93;0.90;;;25.80;60.00;;;;;;5013377;28;20049;-76
2021/05/31 09:55:35;;;;;;;;;;;25.70;59.80;;;;;;5013685;28;20045;-76
2021/05/31 09:58:05;;;;;;;2.05;0.60;;;25.90;60.10;;;;;;5014288;28;19920;-75
2021/05/31 10:00:32;;;;;;;0.60;0.60;;;26.00;60.00;;;;;;4999026;28;20145;-79
2021/05/31 10:03:06;;;;;;;0.77;0.77;;;26.10;59.80;;;;;;4999168;28;20048;-78
2021/05/31 10:05:43;;;;;;;0.77;0.77;;;26.10;59.50;;;;;;5018944;28;20050;-77
2021/05/31 10:08:40;;;;;;;0.70;0.70;;;26.10;59.50;;;;;;4997379;28;20057;-77
2021/05/31 10:10:56;;;;;;;0.70;0.70;;;26.10;59.50;;;;;;4997725;28;20050;-76
2021/05/31 10:13:24;;;;;;;0.63;0.63;;;26.20;59.40;;;;;;4996613;28;20088;-77
2021/05/31 10:15:50;;;;;;;1.15;0.90;;;26.10;59.30;;;;;;5013460;28;20464;-76
2021/05/31 10:18:17;;;;;;;0.80;0.80;;;26.30;59.20;;;;;;4995412;28;20049;-76
2021/05/31 10:20:44;;;;;;;0.80;0.80;;;26.40;59.50;;;;;;5011536;28;20468;-77
2021/05/31 10:23:12;;;;;;;1.02;0.80;;;26.50;58.50;;;;;;4995382;28;20080;-76
2021/05/31 10:25:43;;;;;;;0.77;0.77;;;26.60;58.20;;;;;;4993732;28;20492;-76
2021/05/31 10:28:14;;;;;;;0.80;0.80;;;26.40;58.30;;;;;;5012636;28;20041;-79
2021/05/31 10:30:44;;;;;;;1.45;1.00;;;26.30;58.50;;;;;;4997247;28;20407;-80
2021/05/31 10:33:20;;;;;;;1.00;1.00;;;26.20;58.60;;;;;;5015164;28;20133;-78
2021/05/31 10:35:47;;;;;;;0.88;0.88;;;26.10;58.60;;;;;;4997329;28;20045;-79
2021/05/31 10:38:15;;;;;;;0.60;0.60;;;26.00;58.70;;;;;;5015085;28;20508;-77
2021/05/31 10:40:45;;;;;;;1.00;0.82;;;26.00;58.60;;;;;;4994245;28;20065;-77
2021/05/31 10:43:13;;;;;;;1.10;0.98;;;26.00;58.60;;;;;;5012796;28;20041;-76
2021/05/31 10:45:41;;;;;;;1.10;1.00;;;26.10;58.50;;;;;;4996177;28;20115;-79
2021/05/31 10:48:13;;;;;;;0.88;0.88;;;26.20;58.40;;;;;;4976887;28;20141;-78
2021/05/31 10:50:51;;;;;;;1.02;0.93;;;26.20;58.10;;;;;;5014590;28;20112;-78
2021/05/31 10:53:29;;;;;;;0.82;0.82;;;26.20;57.90;;;;;;4997531;28;20104;-79
2021/05/31 10:56:03;;;;;;;1.63;1.02;;;26.10;57.80;;;;;;4999242;28;20123;-80
2021/05/31 10:58:39;;;;;;;1.00;0.90;;;26.10;57.90;;;;;;5015331;28;20050;-78
2021/05/31 11:01:08;;;;;;;0.82;0.82;;;26.10;58.00;;;;;;4998204;28;20037;-78
2021/05/31 11:03:54;;;;;;;0.88;0.85;;;26.00;58.00;;;;;;4994538;28;20042;-79
2021/05/31 11:06:22;;;;;;;0.80;0.80;;;26.00;57.70;;;;;;5012139;28;20153;-76
2021/05/31 11:08:51;;;;;;;0.80;0.80;;;26.00;57.70;;;;;;5013910;28;20080;-77
2021/05/31 11:11:28;;;;;;;0.95;0.95;;;26.00;57.40;;;;;;4996247;28;20042;-78
2021/05/31 11:13:55;;;;;;;0.88;0.80;;;26.10;57.30;;;;;;4997489;28;20049;-77
2021/05/31 11:16:22;;;;;;;0.82;0.82;;;26.10;57.00;;;;;;4995092;28;20136;-79
2021/05/31 11:18:49;;;;;;;0.85;0.85;;;26.00;57.00;;;;;;4994515;28;20053;-77
2021/05/31 11:21:41;;;;;;;1.00;0.70;;;25.90;57.00;;;;;;4995027;28;20042;-76
2021/05/31 11:24:09;;;;;;;1.00;0.90;;;25.90;56.90;;;;;;5012503;28;20507;-76
2021/05/31 11:26:37;;;;;;;0.70;0.70;;;25.80;56.90;;;;;;4994357;28;20045;-76
2021/05/31 11:29:05;;;;;;;0.70;0.70;;;25.80;57.00;;;;;;4994334;28;20060;-76
2021/05/31 11:31:31;;;;;;;0.70;0.70;;;25.80;56.90;;;;;;4978416;28;20092;-76
2021/05/31 11:33:57;;;;;;;1.30;1.02;;;25.80;56.70;;;;;;5012335;28;20070;-75
2021/05/31 11:36:29;;;;;;;0.80;0.80;;;25.70;56.60;;;;;;5011829;28;20064;-78
2021/05/31 11:38:55;;;;;;;0.80;0.80;;;25.60;56.60;;;;;;4981917;28;20457;-73
2021/05/31 11:41:35;;;;;;;0.80;0.80;;;25.70;56.50;;;;;;5015504;28;20065;-75
2021/05/31 11:44:01;;;;;;;0.63;0.63;;;25.70;56.20;;;;;;4999593;28;20049;-79
2021/05/31 11:46:27;;;;;;;0.60;0.60;;;25.80;56.10;;;;;;5015768;28;20061;-76
2021/05/31 11:48:55;;;;;;;1.38;0.70;;;25.90;56.00;;;;;;5015117;28;20109;-78
2021/05/31 11:51:21;;;;;;;0.80;0.80;;;25.90;55.80;;;;;;5022471;28;20049;-78
2021/05/31 11:53:48;;;;;;;0.73;0.70;;;25.80;55.60;;;;;;4987875;28;20130;-76
2021/05/31 11:56:13;;;;;;;0.70;0.70;;;25.90;55.70;;;;;;4999496;28;20041;-78
2021/05/31 11:58:41;;;;;;;1.08;0.63;;;25.80;55.50;;;;;;4997994;28;20046;-78
2021/05/31 12:01:10;;;;;;;0.60;0.60;;;25.70;55.30;;;;;;5004140;28;20053;-77
2021/05/31 12:03:38;;;;;;;0.68;0.68;;;25.60;55.30;;;;;;5008690;28;20133;-80
2021/05/31 12:06:12;;;;;;;0.57;0.57;;;25.60;55.50;;;;;;5010600;28;20038;-77
2021/05/31 12:08:38;;;;;;;0.60;0.60;;;25.60;55.30;;;;;;5014849;28;20054;-78
2021/05/31 12:11:04;;;;;;;0.57;0.57;;;25.60;55.40;;;;;;4993829;28;20074;-77
2021/05/31 12:13:33;;;;;;;0.60;0.52;;;25.60;55.20;;;;;;5019737;28;20103;-76
2021/05/31 12:16:11;;;;;;;0.85;0.85;;;25.60;55.00;;;;;;5003630;28;20046;-77
2021/05/31 12:18:37;;;;;;;0.80;0.80;;;25.60;55.00;;;;;;5014601;28;20052;-77
2021/05/31 12:21:03;;;;;;;0.60;0.60;;;25.50;54.90;;;;;;4999406;28;20105;-76
2021/05/31 12:23:29;;;;;;;1.05;0.95;;;25.50;54.90;;;;;;5004311;28;20105;-76
2021/05/31 12:26:02;;;;;;;0.88;0.52;;;25.50;55.00;;;;;;5014653;28;20058;-76
2021/05/31 12:28:31;;;;;;;0.80;0.80;;;25.40;55.00;;;;;;5007305;28;20050;-77
2021/05/31 12:30:57;;;;;;;0.80;0.80;;;25.40;54.90;;;;;;5014549;28;20080;-75
2021/05/31 12:33:23;;;;;;;0.60;0.60;;;25.40;54.80;;;;;;4979873;28;20563;-76
2021/05/31 12:35:49;;;;;;;0.93;0.82;;;25.40;54.80;;;;;;5014537;28;20488;-76
2021/05/31 12:38:19;;;;;;;1.00;0.80;;;25.40;54.80;;;;;;4997457;28;20132;-76
2021/05/31 12:40:45;;;;;;;0.85;0.80;;;25.30;55.10;;;;;;5014483;28;20069;-76
2021/05/31 12:43:11;;;;;;;1.13;0.90;;;25.30;54.70;;;;;;4996826;28;20102;-76
2021/05/31 12:45:44;;;;;;;0.93;0.90;;;25.20;54.50;;;;;;5013835;28;20072;-76
2021/05/31 12:48:16;;;;;;;1.00;0.68;;;25.20;54.40;;;;;;4996627;28;20049;-76
2021/05/31 12:50:42;;;;;;;0.70;0.70;;;25.10;54.60;;;;;;5013717;28;20914;-76
2021/05/31 12:53:11;;;;;;;0.75;0.73;;;25.00;54.50;;;;;;4996692;28;20073;-76
2021/05/31 12:55:39;;;;;;;0.70;0.70;;;24.90;54.60;;;;;;5014440;28;20555;-81
2021/05/31 12:58:27;;;;;;;1.08;0.98;;;24.80;54.70;;;;;;4999523;28;20044;-82
2021/05/31 13:00:57;;;;;;;0.88;0.82;;;24.80;54.60;;;;;;4998355;28;20045;-80
2021/05/31 13:03:31;;;;;;;0.80;0.80;;;24.80;54.60;;;;;;4981815;28;20443;-79
2021/05/31 13:05:57;;;;;;;0.63;0.63;;;24.90;55.10;;;;;;4997043;28;20042;-77
2021/05/31 13:08:22;;;;;;;1.38;0.90;;;24.90;54.40;;;;;;4997072;28;20057;-80
2021/05/31 13:10:53;;;;;;;0.98;0.95;;;24.90;54.30;;;;;;4997069;28;20046;-78